createdAt,value
2023-05-06T00:00:20.015Z,4.33
2023-05-06T00:02:47.335Z,4.50
2023-05-06T00:05:15.038Z,4.37
2023-05-06T00:07:42.090Z,4.90
2023-05-06T00:10:09.740Z,4.80
2023-05-06T00:12:36.802Z,4.63
2023-05-06T00:15:04.934Z,4.77
2023-05-06T00:17:32.122Z,4.67
2023-05-06T00:19:59.257Z,4.57
2023-05-06T00:22:26.436Z,5.10
2023-05-06T00:24:53.510Z,4.83
2023-05-06T00:27:20.644Z,4.43
2023-05-06T00:29:47.684Z,5.60
2023-05-06T00:32:15.278Z,4.70
2023-05-06T00:34:42.776Z,4.37
2023-05-06T00:37:10.031Z,4.07
2023-05-06T00:39:37.260Z,4.20
2023-05-06T00:42:04.520Z,5.00
2023-05-06T00:44:34.366Z,5.20
2023-05-06T00:47:02.126Z,5.23
2023-05-06T00:49:30.798Z,4.30
2023-05-06T00:51:59.182Z,4.00
2023-05-06T00:54:27.017Z,4.93
2023-05-06T00:56:54.227Z,5.50
2023-05-06T00:59:22.710Z,4.77
2023-05-06T01:01:52.299Z,4.33
2023-05-06T01:04:19.889Z,4.70
2023-05-06T01:07:28.856Z,4.83
2023-05-06T01:10:35.752Z,5.30
2023-05-06T01:13:30.853Z,5.53
2023-05-06T01:15:59.836Z,5.40
2023-05-06T01:18:28.440Z,6.20
2023-05-06T01:20:56.798Z,5.10
2023-05-06T01:23:23.890Z,4.90
2023-05-06T01:25:51.264Z,4.60
2023-05-06T01:28:18.428Z,4.90
2023-05-06T01:31:12.953Z,5.60
2023-05-06T01:34:22.364Z,5.90
2023-05-06T01:37:22.440Z,5.10
2023-05-06T01:39:51.546Z,5.10
2023-05-06T01:42:19.610Z,5.87
2023-05-06T01:44:48.992Z,5.40
2023-05-06T01:47:17.632Z,5.60
2023-05-06T01:49:44.970Z,5.47
2023-05-06T01:52:11.992Z,5.53
2023-05-06T01:54:39.100Z,5.47
2023-05-06T01:57:06.132Z,5.90
2023-05-06T01:59:33.392Z,6.60
2023-05-06T02:02:00.931Z,7.13
2023-05-06T02:04:28.014Z,6.73
2023-05-06T02:06:55.080Z,6.57
2023-05-06T02:09:22.328Z,6.50
2023-05-06T02:11:55.555Z,6.20
2023-05-06T02:14:23.944Z,6.07
2023-05-06T02:16:52.644Z,5.33
2023-05-06T02:19:21.096Z,5.40
2023-05-06T02:21:48.211Z,5.90
2023-05-06T02:24:15.306Z,5.37
2023-05-06T02:26:42.398Z,7.17
2023-05-06T02:29:09.656Z,6.60
2023-05-06T02:31:36.751Z,7.80
2023-05-06T02:34:03.939Z,7.27
2023-05-06T02:36:31.025Z,6.63
2023-05-06T02:38:58.211Z,5.63
2023-05-06T02:41:25.271Z,6.33
2023-05-06T02:43:52.560Z,7.43
2023-05-06T02:46:19.697Z,6.83
2023-05-06T02:48:46.863Z,6.27
2023-05-06T02:51:14.060Z,6.40
2023-05-06T02:53:41.269Z,6.53
2023-05-06T02:56:08.402Z,6.60
2023-05-06T02:58:35.602Z,6.40
2023-05-06T03:01:02.799Z,7.20
2023-05-06T03:03:29.928Z,6.53
2023-05-06T03:05:56.983Z,6.53
2023-05-06T03:08:24.368Z,6.67
2023-05-06T03:10:52.472Z,6.13
2023-05-06T03:13:20.748Z,6.70
2023-05-06T03:15:54.513Z,6.90
2023-05-06T03:18:22.324Z,6.90
2023-05-06T03:20:50.233Z,7.50
2023-05-06T03:23:18.256Z,7.50
2023-05-06T03:25:46.303Z,7.47
2023-05-06T03:28:14.066Z,6.67
2023-05-06T03:30:43.179Z,7.70
2023-05-06T03:33:10.938Z,8.60
2023-05-06T03:35:38.116Z,8.73
2023-05-06T03:38:05.194Z,12.97
2023-05-06T03:40:55.091Z,8.60
2023-05-06T03:43:22.574Z,9.17
2023-05-06T03:45:53.557Z,11.17
2023-05-06T03:48:21.100Z,11.13
2023-05-06T03:50:49.727Z,9.97
2023-05-06T03:53:18.121Z,10.63
2023-05-06T03:55:50.959Z,10.27
2023-05-06T03:58:18.213Z,9.63
2023-05-06T04:00:46.531Z,10.87
2023-05-06T04:03:13.816Z,10.50
2023-05-06T04:05:51.672Z,10.80
2023-05-06T04:08:23.109Z,13.87
2023-05-06T04:10:50.288Z,13.30
2023-05-06T04:13:26.351Z,11.10
2023-05-06T04:15:54.313Z,16.20
2023-05-06T04:18:26.478Z,15.13
2023-05-06T04:21:01.049Z,10.27
2023-05-06T04:23:30.720Z,13.60
2023-05-06T04:25:59.380Z,13.30
2023-05-06T04:28:28.067Z,10.50
2023-05-06T04:30:55.203Z,9.57
2023-05-06T04:33:25.749Z,9.17
2023-05-06T04:35:54.472Z,9.63
2023-05-06T04:38:22.779Z,9.90
2023-05-06T04:40:50.296Z,9.30
2023-05-06T04:43:18.327Z,10.03
2023-05-06T04:45:50.860Z,10.73
2023-05-06T04:48:22.984Z,10.97
2023-05-06T04:50:52.295Z,9.70
2023-05-06T04:53:19.476Z,8.57
2023-05-06T04:55:46.901Z,8.40
2023-05-06T04:58:14.576Z,9.17
2023-05-06T05:00:42.170Z,9.67
2023-05-06T05:03:10.087Z,8.40
2023-05-06T05:05:37.658Z,9.50
2023-05-06T05:08:13.347Z,8.47
2023-05-06T05:10:43.867Z,9.50
2023-05-06T05:13:14.473Z,9.47
2023-05-06T05:15:42.755Z,9.77
2023-05-06T05:18:10.351Z,8.47
2023-05-06T05:20:37.678Z,9.10
2023-05-06T05:23:06.179Z,7.03
2023-05-06T05:25:33.546Z,8.27
2023-05-06T05:28:00.626Z,9.33
2023-05-06T05:30:29.069Z,11.73
2023-05-06T05:32:56.320Z,11.47
2023-05-06T05:35:23.659Z,8.27
2023-05-06T05:37:53.053Z,8.60
2023-05-06T05:40:20.496Z,7.43
2023-05-06T05:42:51.418Z,7.90
2023-05-06T05:45:25.825Z,8.17
2023-05-06T05:47:54.296Z,7.97
2023-05-06T05:50:22.844Z,6.33
2023-05-06T05:52:51.777Z,7.47
2023-05-06T05:55:21.380Z,9.77
2023-05-06T05:57:49.786Z,9.90
2023-05-06T06:00:18.867Z,10.80
2023-05-06T06:02:46.109Z,9.97
2023-05-06T06:05:17.782Z,10.80
2023-05-06T06:07:45.432Z,9.67
2023-05-06T06:10:15.558Z,12.40
2023-05-06T06:12:44.800Z,9.30
2023-05-06T06:15:15.610Z,11.27
2023-05-06T06:17:44.679Z,9.90
2023-05-06T06:20:13.236Z,9.80
2023-05-06T06:22:41.026Z,13.07
2023-05-06T06:25:08.863Z,11.93
2023-05-06T06:27:39.318Z,10.57
2023-05-06T06:30:08.441Z,11.17
2023-05-06T06:32:35.693Z,13.33
2023-05-06T06:35:02.761Z,12.00
2023-05-06T06:37:29.855Z,12.33
2023-05-06T06:39:56.900Z,12.77
2023-05-06T06:42:24.066Z,11.60
2023-05-06T06:45:10.222Z,14.53
2023-05-06T06:47:37.666Z,12.60
2023-05-06T06:50:05.854Z,14.97
2023-05-06T06:52:33.144Z,13.83
2023-05-06T06:55:01.019Z,15.23
2023-05-06T06:57:28.220Z,12.40
2023-05-06T06:59:55.872Z,13.73
2023-05-06T07:02:23.430Z,14.70
2023-05-06T07:04:50.565Z,12.87
2023-05-06T07:07:17.857Z,12.27
2023-05-06T07:09:44.906Z,12.57
2023-05-06T07:12:12.328Z,13.23
2023-05-06T07:14:39.566Z,12.80
2023-05-06T07:17:06.957Z,12.57
2023-05-06T07:19:33.997Z,11.80
2023-05-06T07:22:03.041Z,11.60
2023-05-06T07:24:30.106Z,9.93
2023-05-06T07:26:57.827Z,12.23
2023-05-06T07:29:25.112Z,11.80
2023-05-06T07:31:52.300Z,10.20
2023-05-06T07:34:19.879Z,8.63
2023-05-06T07:36:46.994Z,10.03
2023-05-06T07:39:14.257Z,9.37
2023-05-06T07:41:41.418Z,8.53
2023-05-06T07:44:08.529Z,9.90
2023-05-06T07:46:35.825Z,9.67
2023-05-06T07:49:03.081Z,8.47
2023-05-06T07:51:30.179Z,6.97
2023-05-06T07:53:57.323Z,7.27
2023-05-06T07:56:24.435Z,7.13
2023-05-06T07:58:51.734Z,7.50
2023-05-06T08:01:18.792Z,6.47
2023-05-06T08:03:46.048Z,6.87
2023-05-06T08:06:13.209Z,6.47
2023-05-06T08:08:40.327Z,6.70
2023-05-06T08:11:07.383Z,7.23
2023-05-06T08:13:34.822Z,6.67
2023-05-06T08:16:02.611Z,6.90
2023-05-06T08:18:30.323Z,7.00
2023-05-06T08:20:57.439Z,7.80
2023-05-06T08:23:24.673Z,6.30
2023-05-06T08:25:52.024Z,6.90
2023-05-06T08:28:19.645Z,6.83
2023-05-06T08:30:48.578Z,6.60
2023-05-06T08:33:15.732Z,5.90
2023-05-06T08:35:42.849Z,5.70
2023-05-06T08:38:09.926Z,6.27
2023-05-06T08:40:44.458Z,5.50
2023-05-06T08:43:14.824Z,6.87
2023-05-06T08:45:42.627Z,6.70
2023-05-06T08:48:09.985Z,6.40
2023-05-06T08:50:42.348Z,5.67
2023-05-06T08:53:13.614Z,5.33
2023-05-06T08:55:44.324Z,5.47
2023-05-06T08:58:14.449Z,5.03
2023-05-06T09:00:42.474Z,5.50
2023-05-06T09:03:09.686Z,5.40
2023-05-06T09:05:36.917Z,5.30
2023-05-06T09:08:04.109Z,4.93
2023-05-06T09:10:45.238Z,5.20
2023-05-06T09:13:17.154Z,5.10
2023-05-06T09:15:49.275Z,4.83
2023-05-06T09:18:17.158Z,4.70
2023-05-06T09:20:47.714Z,6.00
2023-05-06T09:23:17.829Z,4.30
2023-05-06T09:25:47.206Z,4.47
2023-05-06T09:28:15.104Z,4.40
2023-05-06T09:30:43.835Z,3.80
2023-05-06T09:33:11.912Z,4.30
2023-05-06T09:35:43.454Z,3.67
2023-05-06T09:38:11.114Z,3.73
2023-05-06T09:40:38.966Z,4.07
2023-05-06T09:43:06.734Z,4.63
2023-05-06T09:45:34.037Z,4.20
2023-05-06T09:48:01.455Z,4.63
2023-05-06T09:50:28.770Z,4.07
2023-05-06T09:52:56.917Z,4.10
2023-05-06T09:55:27.011Z,3.90
2023-05-06T09:57:55.566Z,3.10
2023-05-06T10:00:28.321Z,3.60
2023-05-06T10:02:56.303Z,3.63
2023-05-06T10:05:26.460Z,3.47
2023-05-06T10:07:56.550Z,3.10
2023-05-06T10:10:25.982Z,2.73
2023-05-06T10:12:53.690Z,2.60
2023-05-06T10:15:20.995Z,2.97
2023-05-06T10:17:52.819Z,2.30
2023-05-06T10:20:23.550Z,2.90
2023-05-06T10:23:28.041Z,2.77
2023-05-06T10:25:57.866Z,3.07
2023-05-06T10:28:29.278Z,2.40
2023-05-06T10:30:59.527Z,3.10
2023-05-06T10:33:27.699Z,3.27
2023-05-06T10:36:33.575Z,2.67
2023-05-06T10:39:03.389Z,3.10
2023-05-06T10:41:31.229Z,2.90
2023-05-06T10:43:59.461Z,2.60
2023-05-06T10:46:29.886Z,2.97
2023-05-06T10:49:27.120Z,2.80
2023-05-06T10:52:17.508Z,2.70
2023-05-06T10:54:52.540Z,2.73
2023-05-06T10:57:25.744Z,2.40
2023-05-06T10:59:54.944Z,2.37
2023-05-06T11:02:24.194Z,2.17
2023-05-06T11:04:53.309Z,2.10
2023-05-06T11:07:24.201Z,2.30
2023-05-06T11:10:06.195Z,2.80
2023-05-06T11:12:53.685Z,2.90
2023-05-06T11:15:40.575Z,2.70
2023-05-06T11:18:46.218Z,2.50
2023-05-06T11:21:36.971Z,3.10
2023-05-06T11:24:06.997Z,3.20
2023-05-06T11:26:34.656Z,3.00
2023-05-06T11:29:04.144Z,2.70
2023-05-06T11:31:39.473Z,2.67
2023-05-06T11:34:18.669Z,2.40
2023-05-06T11:36:47.937Z,2.10
2023-05-06T11:39:15.807Z,2.17
2023-05-06T11:41:42.877Z,2.10
2023-05-06T11:44:12.194Z,1.90
2023-05-06T11:46:39.456Z,1.63
2023-05-06T11:49:06.637Z,1.97
2023-05-06T11:51:33.770Z,2.40
2023-05-06T11:54:11.031Z,1.90
2023-05-06T11:56:50.171Z,1.80
2023-05-06T11:59:18.837Z,1.80
2023-05-06T12:01:46.600Z,1.70
2023-05-06T12:04:14.023Z,1.53
2023-05-06T12:06:41.245Z,1.53
2023-05-06T12:09:12.304Z,1.43
2023-05-06T12:11:42.077Z,1.50
2023-05-06T12:14:11.336Z,1.67
2023-05-06T12:16:39.005Z,1.60
2023-05-06T12:19:06.492Z,1.40
2023-05-06T12:21:37.696Z,1.63
2023-05-06T12:24:05.508Z,1.63
2023-05-06T12:26:49.550Z,1.47
2023-05-06T12:29:17.566Z,1.90
2023-05-06T12:31:48.344Z,1.53
2023-05-06T12:34:17.956Z,1.50
2023-05-06T12:36:46.921Z,1.60
2023-05-06T12:39:14.488Z,1.40
2023-05-06T12:41:45.955Z,1.20
2023-05-06T12:44:36.549Z,1.37
2023-05-06T12:47:07.544Z,3.03
2023-05-06T12:49:54.419Z,1.80
2023-05-06T12:52:23.918Z,1.93
2023-05-06T12:54:52.999Z,1.90
2023-05-06T12:57:21.019Z,1.50
2023-05-06T12:59:49.483Z,1.60
2023-05-06T13:02:16.880Z,1.70
2023-05-06T13:04:45.367Z,1.63
2023-05-06T13:07:12.681Z,1.70
2023-05-06T13:09:39.808Z,1.77
2023-05-06T13:12:07.491Z,1.50
2023-05-06T13:14:35.530Z,1.70
2023-05-06T13:17:06.793Z,1.60
2023-05-06T13:19:34.362Z,1.63
2023-05-06T13:22:02.129Z,1.73
2023-05-06T13:24:29.797Z,2.37
2023-05-06T13:26:57.598Z,1.67
2023-05-06T13:29:25.007Z,1.87
2023-05-06T13:31:52.146Z,1.30
2023-05-06T13:34:19.523Z,1.80
2023-05-06T13:36:49.252Z,1.70
2023-05-06T13:39:16.496Z,1.83
2023-05-06T13:41:46.761Z,1.43
2023-05-06T13:44:14.137Z,1.90
2023-05-06T13:46:42.488Z,1.40
2023-05-06T13:49:10.771Z,1.70
2023-05-06T13:51:37.890Z,1.60
2023-05-06T13:54:06.041Z,1.67
2023-05-06T13:56:48.709Z,1.80
2023-05-06T13:59:16.039Z,1.50
2023-05-06T14:01:43.594Z,1.67
2023-05-06T14:04:10.910Z,1.90
2023-05-06T14:06:38.890Z,2.10
2023-05-06T14:09:05.946Z,1.60
2023-05-06T14:11:33.028Z,1.67
2023-05-06T14:14:00.467Z,1.47
2023-05-06T14:16:27.567Z,1.70
2023-05-06T14:18:54.736Z,1.50
2023-05-06T14:21:22.154Z,1.50
2023-05-06T14:23:49.286Z,1.63
2023-05-06T14:26:16.367Z,1.80
2023-05-06T14:28:43.583Z,1.67
2023-05-06T14:31:10.868Z,1.67
2023-05-06T14:33:38.974Z,1.60
2023-05-06T14:36:06.511Z,1.60
2023-05-06T14:38:33.915Z,1.70
2023-05-06T14:41:01.182Z,2.03
2023-05-06T14:43:28.294Z,2.00
2023-05-06T14:45:55.343Z,2.03
2023-05-06T14:48:22.658Z,1.60
2023-05-06T14:50:49.701Z,1.63
2023-05-06T14:53:16.948Z,1.90
2023-05-06T14:55:45.327Z,1.27
2023-05-06T14:58:12.641Z,1.50
2023-05-06T15:00:39.694Z,1.50
2023-05-06T15:03:07.213Z,1.60
2023-05-06T15:05:37.143Z,1.70
2023-05-06T15:08:04.356Z,1.50
2023-05-06T15:10:31.480Z,1.90
2023-05-06T15:12:58.659Z,1.30
2023-05-06T15:15:25.815Z,1.80
2023-05-06T15:17:53.124Z,1.83
2023-05-06T15:20:20.280Z,1.70
2023-05-06T15:22:47.384Z,2.07
2023-05-06T15:25:26.204Z,1.90
2023-05-06T15:28:01.111Z,1.47
2023-05-06T15:30:28.185Z,1.37
2023-05-06T15:32:55.417Z,1.80
2023-05-06T15:35:22.789Z,1.70
2023-05-06T15:37:51.357Z,1.50
2023-05-06T15:40:18.507Z,2.03
2023-05-06T15:42:45.668Z,1.53
2023-05-06T15:45:13.155Z,1.90
2023-05-06T15:47:40.369Z,1.70
2023-05-06T15:52:37.991Z,1.67
2023-05-06T15:55:05.767Z,1.53
2023-05-06T15:57:32.853Z,1.40
2023-05-06T16:00:00.037Z,1.83
2023-05-06T16:02:27.860Z,1.70
2023-05-06T16:04:55.139Z,1.50
2023-05-06T16:07:22.492Z,1.63
2023-05-06T16:09:50.596Z,1.73
2023-05-06T16:12:17.691Z,2.13
2023-05-06T16:14:44.796Z,2.00
2023-05-06T16:17:11.907Z,1.80
2023-05-06T16:19:39.029Z,1.60
2023-05-06T16:22:06.148Z,1.70
2023-05-06T16:24:33.215Z,1.80
2023-05-06T16:27:01.186Z,1.70
2023-05-06T16:29:28.285Z,1.60
2023-05-06T16:31:55.760Z,1.70
2023-05-06T16:34:22.832Z,1.40
2023-05-06T16:36:50.618Z,1.83
2023-05-06T16:39:17.700Z,1.50
2023-05-06T16:41:44.767Z,1.70
2023-05-06T16:44:11.786Z,1.90
2023-05-06T16:46:39.233Z,1.53
2023-05-06T16:49:06.459Z,1.77
2023-05-06T16:51:33.603Z,2.37
2023-05-06T16:54:00.721Z,1.93
2023-05-06T16:56:36.733Z,1.70
2023-05-06T16:59:07.685Z,2.00
2023-05-06T17:01:34.712Z,1.80
2023-05-06T17:04:01.805Z,1.53
2023-05-06T17:06:31.500Z,2.27
2023-05-06T17:08:59.140Z,1.50
2023-05-06T17:11:26.243Z,1.90
2023-05-06T17:13:54.563Z,1.90
2023-05-06T17:16:21.823Z,2.07
2023-05-06T17:18:48.944Z,1.80
2023-05-06T17:21:16.328Z,1.90
2023-05-06T17:23:44.297Z,2.07
2023-05-06T17:26:11.362Z,1.90
2023-05-06T17:28:38.724Z,2.10
2023-05-06T17:31:05.853Z,2.23
2023-05-06T17:33:32.972Z,1.50
2023-05-06T17:36:00.119Z,1.57
2023-05-06T17:38:27.240Z,2.10
2023-05-06T17:40:54.370Z,1.73
2023-05-06T17:43:21.650Z,1.60
2023-05-06T17:45:48.939Z,1.57
2023-05-06T17:48:16.102Z,1.73
2023-05-06T17:50:43.166Z,1.40
2023-05-06T17:53:10.234Z,1.80
2023-05-06T17:55:37.333Z,1.70
2023-05-06T17:58:04.558Z,2.00
2023-05-06T18:00:31.645Z,1.60
2023-05-06T18:02:59.756Z,1.57
2023-05-06T18:05:27.887Z,2.17
2023-05-06T18:07:55.007Z,1.63
2023-05-06T18:10:22.064Z,1.67
2023-05-06T18:12:49.348Z,1.50
2023-05-06T18:15:16.469Z,1.80
2023-05-06T18:17:43.764Z,1.97
2023-05-06T18:20:11.730Z,1.77
2023-05-06T18:22:39.761Z,2.00
2023-05-06T18:25:07.864Z,1.90
2023-05-06T18:27:35.569Z,2.07
2023-05-06T18:30:03.693Z,1.87
2023-05-06T18:32:31.740Z,1.70
2023-05-06T18:34:58.870Z,1.50
2023-05-06T18:37:28.487Z,2.00
2023-05-06T18:39:55.716Z,1.90
2023-05-06T18:42:23.264Z,2.17
2023-05-06T18:44:50.486Z,2.13
2023-05-06T18:47:19.354Z,1.80
2023-05-06T18:49:46.397Z,2.20
2023-05-06T18:52:15.074Z,2.17
2023-05-06T18:54:42.126Z,1.90
2023-05-06T18:57:09.404Z,2.27
2023-05-06T18:59:36.612Z,1.63
2023-05-06T19:02:04.185Z,1.90
2023-05-06T19:04:33.719Z,1.83
2023-05-06T19:07:01.242Z,2.27
2023-05-06T19:09:28.331Z,2.07
2023-05-06T19:11:55.925Z,1.90
2023-05-06T19:14:23.653Z,2.00
2023-05-06T19:16:52.616Z,2.10
2023-05-06T19:19:19.846Z,2.13
2023-05-06T19:21:47.073Z,2.13
2023-05-06T19:24:14.159Z,1.77
2023-05-06T19:26:41.390Z,2.17
2023-05-06T19:29:08.574Z,1.70
2023-05-06T19:31:35.883Z,2.57
2023-05-06T19:34:03.011Z,2.00
2023-05-06T19:36:30.149Z,2.60
2023-05-06T19:38:57.218Z,2.00
2023-05-06T19:41:24.434Z,2.60
2023-05-06T19:43:51.564Z,2.77
2023-05-06T19:46:18.832Z,3.50
2023-05-06T19:48:46.599Z,3.20
2023-05-06T19:51:13.902Z,3.13
2023-05-06T19:53:41.001Z,2.70
2023-05-06T19:56:09.492Z,2.63
2023-05-06T19:58:36.641Z,3.00
2023-05-06T20:01:03.779Z,2.30
2023-05-06T20:03:32.572Z,2.70
2023-05-06T20:05:59.711Z,2.67
2023-05-06T20:08:27.016Z,3.20
2023-05-06T20:10:54.335Z,2.80
2023-05-06T20:13:21.508Z,3.13
2023-05-06T20:15:49.221Z,3.10
2023-05-06T20:18:16.426Z,2.60
2023-05-06T20:20:43.561Z,3.10
2023-05-06T20:23:10.707Z,2.43
2023-05-06T20:25:38.025Z,2.83
2023-05-06T20:28:07.005Z,2.77
2023-05-06T20:30:34.777Z,3.37
2023-05-06T20:33:02.135Z,3.07
2023-05-06T20:35:29.484Z,3.30
2023-05-06T20:37:56.580Z,2.80
2023-05-06T20:40:23.761Z,2.73
2023-05-06T20:42:50.917Z,3.03
2023-05-06T20:45:18.211Z,2.90
2023-05-06T20:47:45.485Z,3.13
2023-05-06T20:50:17.195Z,2.90
2023-05-06T20:52:46.135Z,3.07
2023-05-06T20:55:14.782Z,2.93
2023-05-06T20:57:45.130Z,3.27
2023-05-06T21:00:13.061Z,3.70
2023-05-06T21:02:41.977Z,3.00
2023-05-06T21:05:09.918Z,3.07
2023-05-06T21:07:37.201Z,3.03
2023-05-06T21:10:06.023Z,3.20
2023-05-06T21:12:33.667Z,3.30
2023-05-06T21:15:01.198Z,3.50
2023-05-06T21:17:29.134Z,3.00
2023-05-06T21:19:56.422Z,3.50
2023-05-06T21:22:24.496Z,3.00
2023-05-06T21:24:52.182Z,3.70
2023-05-06T21:27:19.302Z,3.17
2023-05-06T21:29:46.730Z,3.47
2023-05-06T21:32:14.120Z,3.13
2023-05-06T21:34:41.282Z,3.67
2023-05-06T21:37:08.461Z,3.83
2023-05-06T21:39:35.926Z,4.10
2023-05-06T21:42:03.031Z,4.13
2023-05-06T21:44:30.593Z,4.20
2023-05-06T21:46:57.770Z,3.90
2023-05-06T21:49:24.834Z,3.67
2023-05-06T21:51:51.871Z,4.17
2023-05-06T21:54:19.015Z,3.90
2023-05-06T21:56:49.657Z,3.97
2023-05-06T21:59:16.912Z,3.53
2023-05-06T22:01:44.024Z,3.37
2023-05-06T22:04:13.118Z,3.90
2023-05-06T22:06:40.600Z,3.83
2023-05-06T22:09:10.666Z,3.53
2023-05-06T22:11:38.516Z,3.10
2023-05-06T22:14:06.915Z,3.83
2023-05-06T22:16:35.708Z,3.40
2023-05-06T22:19:04.654Z,3.03
2023-05-06T22:21:33.308Z,3.50
2023-05-06T22:24:00.720Z,3.60
2023-05-06T22:26:28.355Z,3.20
2023-05-06T22:28:58.729Z,3.73
2023-05-06T22:31:26.073Z,3.13
2023-05-06T22:33:57.615Z,3.30
2023-05-06T22:36:29.322Z,3.93
2023-05-06T22:38:56.945Z,3.53
2023-05-06T22:41:24.104Z,3.30
2023-05-06T22:43:51.242Z,3.40
2023-05-06T22:46:18.565Z,3.23
2023-05-06T22:48:46.553Z,2.77
2023-05-06T22:51:16.151Z,3.27
2023-05-06T22:53:43.473Z,2.93
2023-05-06T22:56:10.634Z,3.60
2023-05-06T22:58:37.806Z,3.23
2023-05-06T23:01:05.277Z,3.10
2023-05-06T23:03:32.442Z,3.10
2023-05-06T23:05:59.567Z,2.80
2023-05-06T23:08:26.841Z,2.73
2023-05-06T23:10:53.980Z,3.23
2023-05-06T23:13:21.350Z,3.50
2023-05-06T23:15:48.610Z,3.10
2023-05-06T23:18:15.736Z,2.97
2023-05-06T23:20:42.943Z,3.30
2023-05-06T23:23:10.824Z,3.23
2023-05-06T23:25:38.270Z,3.13
2023-05-06T23:28:05.633Z,3.43
2023-05-06T23:30:32.776Z,3.67
2023-05-06T23:32:59.928Z,3.77
2023-05-06T23:35:27.068Z,4.10
2023-05-06T23:37:54.102Z,3.47
2023-05-06T23:40:21.440Z,4.43
2023-05-06T23:42:48.485Z,3.50
2023-05-06T23:45:15.721Z,3.90
2023-05-06T23:47:42.764Z,3.87
2023-05-06T23:50:10.638Z,3.30
2023-05-06T23:52:38.350Z,3.30
2023-05-06T23:55:06.226Z,3.40
2023-05-06T23:57:33.723Z,3.57
